Terminal Aerodrome Forecast
Issued by NWS Memphis, TN

Home | Current Version | Previous Version | Text Only | Print | Product List | Glossary On
Versions: 1 2 3 4 5 6 7 8 9 10 11 12 13 14 15 16 17 18 19
978
FTUS44 KMEG 300316 AAA
TAFMKL
TAF AMD
KMKL 300316Z 3003/3024 19002KT P6SM SCT100 BKN250
      TEMPO 3009/3013 5SM BR
     FM301300 20005KT P6SM SCT015 SCT040
     FM301700 24007KT P6SM VCTS BKN040CB
      TEMPO 3020/3024 3SM TSRA BKN025CB=

USA.gov is the U.S. government's official web portal to all federal, state and local government web resources and services.